createdAt,value
2018-10-11T00:02:21.568Z,11.83
2018-10-11T00:08:26.174Z,11.90
2018-10-11T00:14:30.466Z,10.83
2018-10-11T00:20:34.167Z,11.47
2018-10-11T00:26:37.945Z,11.30
2018-10-11T00:32:41.797Z,10.50
2018-10-11T00:38:45.534Z,10.27
2018-10-11T00:44:49.167Z,11.17
2018-10-11T00:50:52.781Z,11.03
2018-10-11T00:56:56.297Z,11.27
2018-10-11T01:02:59.903Z,11.70
2018-10-11T01:09:03.911Z,12.23
2018-10-11T01:15:07.791Z,12.83
2018-10-11T01:21:11.402Z,11.70
2018-10-11T01:27:15.447Z,11.87
2018-10-11T01:33:19.998Z,12.10
2018-10-11T01:39:24.688Z,11.47
2018-10-11T01:45:28.323Z,10.90
2018-10-11T01:51:31.886Z,11.17
2018-10-11T01:57:35.241Z,11.30
2018-10-11T02:03:38.695Z,11.37
2018-10-11T02:09:42.606Z,11.77
2018-10-11T02:15:46.201Z,11.97
2018-10-11T02:21:49.698Z,12.20
2018-10-11T02:27:53.314Z,12.00
2018-10-11T02:33:57.121Z,12.20
2018-10-11T02:40:00.970Z,11.60
2018-10-11T02:46:04.964Z,12.00
2018-10-11T02:52:09.125Z,11.53
2018-10-11T02:58:29.387Z,12.13
2018-10-11T03:04:34.570Z,12.50
2018-10-11T03:10:38.182Z,12.20
2018-10-11T03:16:42.019Z,12.30
2018-10-11T03:22:45.677Z,11.87
2018-10-11T03:28:49.178Z,12.40
2018-10-11T03:34:53.090Z,13.40
2018-10-11T03:40:56.895Z,13.77
2018-10-11T03:47:01.177Z,14.67
2018-10-11T03:53:05.233Z,13.10
2018-10-11T03:59:09.023Z,12.77
2018-10-11T04:05:12.848Z,13.27
2018-10-11T04:11:16.765Z,13.37
2018-10-11T04:17:20.656Z,13.60
2018-10-11T04:23:27.457Z,13.50
2018-10-11T04:29:31.134Z,14.47
2018-10-11T04:35:34.704Z,15.33
2018-10-11T04:41:39.042Z,14.67
2018-10-11T04:47:42.375Z,15.60
2018-10-11T04:53:50.398Z,17.43
2018-10-11T04:59:54.250Z,15.97
2018-10-11T05:05:58.064Z,17.53
2018-10-11T05:12:02.627Z,17.33
2018-10-11T05:18:07.394Z,18.80
2018-10-11T05:24:10.913Z,19.33
2018-10-11T05:30:14.350Z,19.57
2018-10-11T05:36:18.030Z,19.33
2018-10-11T05:42:22.388Z,18.63
2018-10-11T05:48:28.083Z,20.20
2018-10-11T05:54:31.545Z,20.83
2018-10-11T06:00:35.116Z,21.40
2018-10-11T06:06:38.798Z,21.30
2018-10-11T06:12:42.780Z,19.83
2018-10-11T06:18:49.263Z,19.13
2018-10-11T06:24:52.724Z,18.93
2018-10-11T06:30:56.924Z,20.23
2018-10-11T06:37:01.884Z,20.13
2018-10-11T06:43:06.199Z,18.57
2018-10-11T06:49:09.682Z,19.57
2018-10-11T06:55:13.202Z,17.47
2018-10-11T07:01:16.898Z,18.93
2018-10-11T07:07:20.999Z,17.90
2018-10-11T07:13:24.549Z,18.33
2018-10-11T07:19:32.224Z,18.30
2018-10-11T07:25:35.931Z,17.83
2018-10-11T07:31:40.180Z,17.77
2018-10-11T07:37:44.369Z,18.13
2018-10-11T07:43:48.217Z,18.63
2018-10-11T07:49:52.033Z,18.33
2018-10-11T07:55:55.611Z,17.47
2018-10-11T08:01:59.133Z,18.07
2018-10-11T08:08:03.177Z,18.47
2018-10-11T08:14:07.281Z,18.30
2018-10-11T08:20:11.750Z,17.67
2018-10-11T08:26:15.819Z,17.03
2018-10-11T08:32:20.337Z,17.23
2018-10-11T08:38:24.340Z,17.60
2018-10-11T08:44:28.226Z,16.80
2018-10-11T08:50:32.228Z,17.07
2018-10-11T08:56:35.852Z,15.93
2018-10-11T09:02:39.486Z,15.43
2018-10-11T09:08:43.511Z,16.93
2018-10-11T09:14:47.148Z,14.47
2018-10-11T09:20:50.545Z,13.90
2018-10-11T09:26:54.507Z,14.27
2018-10-11T09:32:58.281Z,13.17
2018-10-11T09:39:02.026Z,13.37
2018-10-11T09:45:06.669Z,12.20
2018-10-11T09:51:10.870Z,11.50
2018-10-11T09:57:24.198Z,10.00
2018-10-11T10:03:27.962Z,10.47
2018-10-11T10:09:31.336Z,8.97
2018-10-11T10:15:35.069Z,8.07
2018-10-11T10:21:38.553Z,7.33
2018-10-11T10:27:42.026Z,7.80
2018-10-11T10:33:45.861Z,6.27
2018-10-11T10:39:49.302Z,5.57
2018-10-11T10:45:53.212Z,6.80
2018-10-11T10:51:57.054Z,6.90
2018-10-11T10:58:00.799Z,4.95
2018-10-11T11:04:04.589Z,4.13
2018-10-11T11:10:08.564Z,4.47
2018-10-11T11:16:13.008Z,5.40
2018-10-11T11:22:16.703Z,4.50
2018-10-11T11:28:20.542Z,4.92
2018-10-11T11:34:24.267Z,4.58
2018-10-11T11:40:27.752Z,4.20
2018-10-11T11:46:32.225Z,5.00
2018-10-11T11:52:35.744Z,4.60
2018-10-11T11:58:40.487Z,4.97
2018-10-11T12:04:44.856Z,4.47
2018-10-11T12:10:48.856Z,5.00
2018-10-11T12:16:52.821Z,5.62
2018-10-11T12:22:57.325Z,5.00
2018-10-11T12:29:01.081Z,5.37
2018-10-11T12:35:04.926Z,5.50
2018-10-11T12:41:08.762Z,4.90
2018-10-11T12:47:13.716Z,4.75
2018-10-11T12:53:18.052Z,4.78
2018-10-11T12:59:21.554Z,5.22
2018-10-11T13:05:25.315Z,4.60
2018-10-11T13:11:30.181Z,4.85
2018-10-11T13:17:38.430Z,4.53
2018-10-11T13:23:37.873Z,4.15
2018-10-11T13:29:41.753Z,5.28
2018-10-11T13:35:46.602Z,4.70
2018-10-11T13:41:50.246Z,5.12
2018-10-11T13:47:53.973Z,5.10
2018-10-11T13:53:58.680Z,5.62
2018-10-11T14:00:01.142Z,5.75
2018-10-11T14:06:04.863Z,6.00
2018-10-11T14:12:08.287Z,5.45
2018-10-11T14:18:12.812Z,6.03
2018-10-11T14:24:17.340Z,6.58
2018-10-11T14:30:21.007Z,6.75
2018-10-11T14:36:24.835Z,6.70
2018-10-11T14:42:28.856Z,5.75
2018-10-11T14:48:32.827Z,6.15
2018-10-11T14:54:36.655Z,5.85
2018-10-11T15:00:40.261Z,5.83
2018-10-11T15:13:19.645Z,5.87
2018-10-11T15:19:23.954Z,5.87
2018-10-11T15:25:27.543Z,5.47
2018-10-11T15:31:31.785Z,5.78
2018-10-11T15:37:35.515Z,5.83
2018-10-11T15:43:39.126Z,6.60
2018-10-11T15:49:42.601Z,6.85
2018-10-11T15:55:46.680Z,6.53
2018-10-11T16:01:51.133Z,6.08
2018-10-11T16:07:55.082Z,6.37
2018-10-11T16:13:59.315Z,6.03
2018-10-11T16:20:03.546Z,6.30
2018-10-11T16:26:07.400Z,6.50
2018-10-11T16:32:11.028Z,6.70
2018-10-11T16:38:14.686Z,6.83
2018-10-11T16:44:18.439Z,6.78
2018-10-11T16:50:22.569Z,6.15
2018-10-11T16:56:26.100Z,7.27
2018-10-11T17:02:29.578Z,7.23
2018-10-11T17:08:33.294Z,7.23
2018-10-11T17:14:37.440Z,7.60
2018-10-11T17:20:41.166Z,7.53
2018-10-11T17:26:44.780Z,7.80
2018-10-11T17:32:50.025Z,8.23
2018-10-11T17:38:53.423Z,7.93
2018-10-11T17:44:56.988Z,8.20
2018-10-11T17:51:00.699Z,7.83
2018-10-11T17:57:04.922Z,8.33
2018-10-11T18:03:08.696Z,8.03
2018-10-11T18:09:12.545Z,8.50
2018-10-11T18:15:16.222Z,9.07
2018-10-11T18:21:19.997Z,8.37
2018-10-11T18:27:23.442Z,8.40
2018-10-11T18:33:26.983Z,8.40
2018-10-11T18:39:30.782Z,8.57
2018-10-11T18:45:34.762Z,8.70
2018-10-11T18:51:38.729Z,9.23
2018-10-11T18:57:42.396Z,10.00
2018-10-11T19:03:45.880Z,10.07
2018-10-11T19:09:52.898Z,10.40
2018-10-11T19:15:57.352Z,11.40
2018-10-11T19:22:00.922Z,11.90
2018-10-11T19:28:04.561Z,11.97
2018-10-11T19:34:08.702Z,14.00
2018-10-11T19:40:13.515Z,12.90
2018-10-11T19:46:17.941Z,14.30
2018-10-11T19:52:21.445Z,14.73
2018-10-11T19:58:25.132Z,14.63
2018-10-11T20:04:28.636Z,14.23
2018-10-11T20:10:32.689Z,14.63
2018-10-11T20:16:36.805Z,14.70
2018-10-11T20:22:40.506Z,14.10
2018-10-11T20:28:44.236Z,14.40
2018-10-11T20:34:47.805Z,14.43
2018-10-11T20:40:51.375Z,14.30
2018-10-11T20:46:56.190Z,14.43
2018-10-11T20:52:59.655Z,14.43
2018-10-11T20:59:03.397Z,14.73
2018-10-11T21:05:07.047Z,14.13
2018-10-11T21:11:17.501Z,13.30
2018-10-11T21:17:20.959Z,13.33
2018-10-11T21:23:24.799Z,12.73
2018-10-11T21:29:28.295Z,13.13
2018-10-11T21:35:32.016Z,12.80
2018-10-11T21:41:41.699Z,13.40
2018-10-11T21:47:45.558Z,13.80
2018-10-11T21:53:49.205Z,13.47
2018-10-11T21:59:53.158Z,13.50
2018-10-11T22:05:57.623Z,12.87
2018-10-11T22:12:01.674Z,12.87
2018-10-11T22:18:05.683Z,14.00
2018-10-11T22:24:09.734Z,12.70
2018-10-11T22:30:13.749Z,13.10
